Middletown, OH

2:30 AM EDT on March 30, 2017 (GMT -0400)
Hook Field Municipal

Weather History for KMWO - November, 2012

Change the Weather History Date:

Monday, November 19, 2012

  Actual Average (KFFO) Record (KFFO)
Temperature  
Mean Temperature 42 °F -  
Max Temperature 57 °F 49 °F 68 °F (1999)
Min Temperature 28 °F 32 °F 12 °F (2014)
Degree Days  
Heating Degree Days 22    
Moisture  
Dew Point 36 °F    
Average Humidity 84    
Maximum Humidity 100    
Minimum Humidity 49    
Precipitation  
Precipitation 0.00 in - - ()
Sea Level Pressure  
Sea Level Pressure 30.31 in    
Wind  
Wind Speed 1 mph (NE)    
Max Wind Speed 5 mph    
Max Gust Speed -    
Visibility 10 miles    
Events      
Averages and records for this station are not official NWS values.
T = Trace of Precipitation, MM = Missing Value Source: NWS Daily Summary

Daily Weather History Graph

Daily Weather History Graph

Search for Another Location

Airport or City:

Trip Planner

Search our weather history database for the weather conditions in past years. The results will help you decide how hot, cold, wet, or windy it might be!

Date:

Astronomy

Nov. 19, 2012 Rise Set
Actual Time 7:26 AM EST 5:19 PM EST
Civil Twilight 6:57 AM EST 5:48 PM EST
Nautical Twilight 6:24 AM EST 6:21 PM EST
Astronomical Twilight 5:52 AM EST 6:53 PM EST
Moon 12:29 PM EST (11/19) 11:44 PM EST (11/19)
Length of Visible Light 10h 50m
Length of Day
9h 52m
Waxing Crescent, 40% of the Moon is Illuminated
Nov 19
Waxing Crescent
Nov 20
First Quarter
Nov 28
Full
Dec 6
Last Quarter
Dec 13
New

Hourly Weather History & Observations

Time (EST) Temp. Windchill Dew Point Humidity Pressure Visibility Wind Dir Wind Speed Gust Speed Precip Events Conditions
12:15 AM 32.5 °F 29.3 °F 32.0 °F 98% 30.40 in 10.0 mi NE 3.5 mph - N/A   Clear
12:55 AM 30.2 °F 26.7 °F 29.8 °F 99% 30.39 in 10.0 mi ENE 3.5 mph - N/A   Clear
1:15 AM 32.5 °F - 32.4 °F 99% 30.39 in 10.0 mi Calm Calm - N/A   Clear
1:35 AM 30.0 °F - 29.5 °F 98% 30.38 in 10.0 mi Calm Calm - N/A   Clear
1:55 AM 30.2 °F - 29.7 °F 98% 30.38 in 10.0 mi Calm Calm - N/A   Clear
2:15 AM 30.2 °F - 30.0 °F 99% 30.38 in 10.0 mi Calm Calm - N/A   Clear
2:35 AM 29.5 °F - 29.5 °F 100% 30.39 in 10.0 mi Calm Calm - N/A   Clear
2:55 AM 29.8 °F - 29.8 °F 100% 30.38 in 10.0 mi Calm Calm - N/A   Clear
3:15 AM 30.2 °F - 30.2 °F 100% 30.38 in 10.0 mi Calm Calm - N/A   Clear
3:35 AM 30.2 °F - 30.2 °F 100% 30.38 in 10.0 mi Calm Calm - N/A   Clear
3:55 AM 28.8 °F - 28.8 °F 100% 30.37 in 10.0 mi Calm Calm - N/A   Clear
4:15 AM 29.3 °F - 29.3 °F 100% 30.37 in 10.0 mi Calm Calm - N/A   Clear
4:35 AM 30.2 °F - 30.2 °F 100% 30.37 in 10.0 mi Calm Calm - N/A   Clear
4:55 AM 30.2 °F - 30.0 °F 99% 30.37 in 10.0 mi Calm Calm - N/A   Clear
5:15 AM 30.2 °F - 30.2 °F 100% 30.37 in 10.0 mi Calm Calm - N/A   Clear
5:35 AM 31.3 °F - 31.1 °F 99% 30.37 in 10.0 mi Calm Calm - N/A   Clear
5:55 AM 30.2 °F - 30.2 °F 100% 30.37 in 10.0 mi Calm Calm - N/A   Clear
6:15 AM 31.8 °F - 31.5 °F 99% 30.37 in 10.0 mi Calm Calm - N/A   Clear
6:35 AM 32.5 °F - 32.2 °F 99% 30.37 in 10.0 mi Calm Calm - N/A   Clear
6:55 AM 32.4 °F - 32.2 °F 99% 30.37 in 10.0 mi Calm Calm - N/A   Clear
7:15 AM 32.5 °F - 32.4 °F 99% 30.37 in 10.0 mi Calm Calm - N/A   Clear
7:35 AM 32.2 °F - 31.8 °F 99% 30.37 in 10.0 mi Calm Calm - N/A   Clear
7:55 AM 32.5 °F - 32.5 °F 100% 30.37 in 10.0 mi Calm Calm - N/A   Clear
8:35 AM 32.5 °F - 32.4 °F 99% 30.37 in 10.0 mi Calm Calm - N/A   Clear
8:55 AM 34.2 °F - 33.4 °F 97% 30.37 in 10.0 mi Calm Calm - N/A   Clear
9:15 AM 36.3 °F - 34.5 °F 93% 30.36 in 10.0 mi Calm Calm - N/A   Clear
9:35 AM 38.7 °F - 35.6 °F 89% 30.36 in 10.0 mi Calm Calm - N/A   Clear
9:55 AM 38.8 °F - 34.2 °F 83% 30.36 in 10.0 mi Calm Calm - N/A   Clear
10:15 AM 41.2 °F - 35.1 °F 79% 30.36 in 10.0 mi Calm Calm - N/A   Clear
10:35 AM 45.1 °F - 36.7 °F 72% 30.36 in 10.0 mi Calm Calm - N/A   Clear
10:55 AM 47.7 °F - 38.1 °F 70% 30.35 in 10.0 mi Calm Calm - N/A   Clear
11:15 AM 48.9 °F - 38.1 °F 66% 30.35 in 10.0 mi Calm Calm - N/A   Clear
11:35 AM 52.7 °F - 39.7 °F 61% 30.34 in 10.0 mi Calm Calm - N/A   Clear
11:55 AM 52.7 °F - 38.8 °F 59% 30.34 in 10.0 mi Calm Calm - N/A   Clear
12:15 PM 52.9 °F - 37.9 °F 57% 30.34 in 10.0 mi Calm Calm - N/A   Clear
12:35 PM 52.7 °F - 37.4 °F 56% 30.33 in 10.0 mi Calm Calm - N/A   Clear
12:55 PM 55.4 °F - 39.4 °F 55% 30.33 in 10.0 mi Calm Calm - N/A   Clear
1:15 PM 55.4 °F - 39.4 °F 55% 30.31 in 10.0 mi Calm Calm - N/A   Clear
1:35 PM 55.4 °F - 39.2 °F 54% 30.30 in 10.0 mi Calm Calm - N/A   Clear
1:55 PM 55.4 °F - 39.6 °F 55% 30.30 in 10.0 mi Calm Calm - N/A   Clear
2:15 PM 55.4 °F - 39.4 °F 55% 30.29 in 10.0 mi Calm Calm - N/A   Clear
2:35 PM 57.2 °F - 40.1 °F 53% 30.29 in 10.0 mi Calm Calm - N/A   Clear
2:55 PM 57.7 °F - 40.3 °F 52% 30.26 in 10.0 mi East 4.6 mph - N/A   Clear
3:15 PM 57.7 °F - 38.8 °F 49% 30.25 in 10.0 mi ESE 4.6 mph - N/A   Clear
3:35 PM 57.7 °F - 38.8 °F 49% 30.26 in 10.0 mi Calm Calm - N/A   Clear
3:55 PM 57.7 °F - 38.8 °F 49% 30.25 in 10.0 mi Calm Calm - N/A   Clear
4:15 PM 57.7 °F - 39.7 °F 51% 30.25 in 10.0 mi Calm Calm - N/A   Clear
4:55 PM 54.5 °F - 40.8 °F 60% 30.25 in 10.0 mi Calm Calm - N/A   Clear
5:15 PM 50.7 °F - 42.6 °F 74% 30.25 in 10.0 mi Calm Calm - N/A   Clear
5:35 PM 47.7 °F - 42.1 °F 81% 30.24 in 10.0 mi Calm Calm - N/A   Clear
5:55 PM 47.7 °F - 43.2 °F 84% 30.25 in 4.0 mi Calm Calm - N/A   Haze
6:15 PM 47.7 °F - 43.7 °F 86% 30.24 in 10.0 mi Calm Calm - N/A   Clear
6:35 PM 47.7 °F - 43.9 °F 87% 30.24 in 7.0 mi Calm Calm - N/A   Clear
6:55 PM 47.7 °F - 44.1 °F 87% 30.24 in 10.0 mi Calm Calm - N/A   Clear
7:15 PM 45.1 °F - 42.1 °F 89% 30.24 in 10.0 mi Calm Calm - N/A   Clear
7:35 PM 44.1 °F - 41.7 °F 91% 30.24 in 10.0 mi Calm Calm - N/A   Clear
7:55 PM 44.6 °F - 41.7 °F 90% 30.24 in 10.0 mi Calm Calm - N/A   Clear
8:15 PM 45.1 °F - 41.9 °F 88% 30.24 in 10.0 mi Calm Calm - N/A   Clear
8:35 PM 42.8 °F - 40.8 °F 93% 30.24 in 10.0 mi Calm Calm - N/A   Clear
8:55 PM 41.7 °F - 39.9 °F 93% 30.23 in 10.0 mi Calm Calm - N/A   Clear
9:15 PM 41.4 °F 39.4 °F 39.6 °F 93% 30.23 in 10.0 mi NNW 3.5 mph - N/A   Clear
9:35 PM 40.3 °F - 39.0 °F 95% 30.23 in 10.0 mi Calm Calm - N/A   Clear
10:15 PM 40.5 °F 38.4 °F 39.7 °F 97% 30.22 in 10.0 mi WNW 3.5 mph - N/A   Clear
10:35 PM 41.2 °F - 40.5 °F 97% 30.22 in 10.0 mi Calm Calm - N/A   Clear
10:55 PM 41.0 °F - 40.5 °F 98% 30.21 in 10.0 mi Calm Calm - N/A   Clear
11:15 PM 41.4 °F - 40.6 °F 97% 30.21 in 10.0 mi Calm Calm - N/A   Scattered Clouds
11:35 PM 41.7 °F - 40.6 °F 96% 30.21 in 10.0 mi Calm Calm - N/A   Mostly Cloudy
11:55 PM 41.7 °F - 40.3 °F 95% 30.20 in 10.0 mi Calm Calm - N/A   Overcast